Time;durP1;ratioP1;P1;durP2;ratioP2;P2;SDS_P1;SDS_P2;PMS_P1;PMS_P2;Temp;Humidity;BMP_temperature;BMP_pressure;BME280_temperature;BME280_humidity;BME280_pressure;Samples;Min_cycle;Max_cycle;Signal;HPM_P1;HPM_P2
2021/05/26 00:00:20;;;;;;;2.90;0.55;;;21.20;40.00;;;;;;5053632;28;20091;-41
2021/05/26 00:02:46;;;;;;;1.90;1.00;;;21.20;39.90;;;;;;5053977;28;20052;-41
2021/05/26 00:05:12;;;;;;;1.38;0.55;;;21.20;39.90;;;;;;5053701;28;20056;-41
2021/05/26 00:07:38;;;;;;;1.33;0.60;;;21.20;40.00;;;;;;5058268;28;20040;-43
2021/05/26 00:10:07;;;;;;;1.85;0.50;;;21.20;40.00;;;;;;5053836;28;20025;-48
2021/05/26 00:12:33;;;;;;;1.40;0.47;;;21.20;40.00;;;;;;5054331;28;20029;-42
2021/05/26 00:14:59;;;;;;;0.75;0.40;;;21.20;40.10;;;;;;5053064;28;20037;-42
2021/05/26 00:17:24;;;;;;;1.10;0.50;;;21.20;40.10;;;;;;5054289;28;20530;-42
2021/05/26 00:19:50;;;;;;;2.10;0.43;;;21.20;40.10;;;;;;5053829;28;20044;-43
2021/05/26 00:22:16;;;;;;;1.38;0.70;;;21.10;40.20;;;;;;5053233;28;20029;-42
2021/05/26 00:24:41;;;;;;;1.80;0.60;;;21.10;40.20;;;;;;5053914;28;20025;-42
2021/05/26 00:27:07;;;;;;;2.92;0.70;;;21.10;40.20;;;;;;5053105;28;20029;-48
2021/05/26 00:29:33;;;;;;;11.77;0.65;;;21.10;40.20;;;;;;5052970;28;20471;-42
2021/05/26 00:31:59;;;;;;;2.67;0.73;;;21.10;40.30;;;;;;5053298;28;20021;-42
2021/05/26 00:34:24;;;;;;;1.02;0.38;;;21.10;40.40;;;;;;5052634;28;20053;-41
2021/05/26 00:36:50;;;;;;;1.25;0.50;;;21.10;40.60;;;;;;5053653;28;20032;-42
2021/05/26 00:39:15;;;;;;;2.30;0.57;;;21.10;40.40;;;;;;5048999;28;20097;-42
2021/05/26 00:41:41;;;;;;;1.10;0.50;;;21.10;40.30;;;;;;5053658;28;20075;-42
2021/05/26 00:44:07;;;;;;;1.17;0.50;;;21.10;40.40;;;;;;5052482;28;20096;-47
2021/05/26 00:46:45;;;;;;;1.17;0.50;;;21.10;40.50;;;;;;5047479;28;20524;-42
2021/05/26 00:49:11;;;;;;;0.82;0.30;;;21.10;40.40;;;;;;5052507;28;20037;-42
2021/05/26 00:51:37;;;;;;;1.52;0.43;;;21.10;40.50;;;;;;5053678;28;20377;-42
2021/05/26 00:54:04;;;;;;;2.20;0.70;;;21.00;40.40;;;;;;5053203;28;20029;-42
2021/05/26 00:56:31;;;;;;;1.35;0.30;;;21.00;40.50;;;;;;5052591;28;20029;-42
2021/05/26 00:58:57;;;;;;;1.88;0.50;;;21.00;40.40;;;;;;5052931;28;20132;-41
2021/05/26 01:01:22;;;;;;;1.00;0.50;;;21.00;40.40;;;;;;5052507;28;20045;-42
2021/05/26 01:03:48;;;;;;;0.88;0.50;;;21.10;40.50;;;;;;5053023;28;20068;-41
2021/05/26 01:06:14;;;;;;;0.80;0.30;;;21.10;40.60;;;;;;5051948;28;20032;-42
2021/05/26 01:08:39;;;;;;;2.30;0.60;;;21.00;40.50;;;;;;5053149;28;20028;-42
2021/05/26 01:11:06;;;;;;;1.23;0.45;;;21.00;40.50;;;;;;5052961;28;20035;-48
2021/05/26 01:13:33;;;;;;;2.40;0.57;;;21.00;40.60;;;;;;5052285;28;20029;-42
2021/05/26 01:15:59;;;;;;;1.77;0.40;;;21.00;40.50;;;;;;5052376;28;20482;-42
2021/05/26 01:18:32;;;;;;;1.20;0.40;;;21.00;40.50;;;;;;5052077;28;20037;-42
2021/05/26 01:21:00;;;;;;;1.35;0.50;;;21.00;40.50;;;;;;5052643;28;20057;-42
2021/05/26 01:23:27;;;;;;;1.55;0.73;;;21.00;40.50;;;;;;5052192;28;20071;-42
2021/05/26 01:25:55;;;;;;;1.52;0.40;;;21.00;40.60;;;;;;5049267;28;20033;-42
2021/05/26 01:28:22;;;;;;;1.30;0.50;;;21.00;40.60;;;;;;5051579;28;20041;-42
2021/05/26 01:30:48;;;;;;;1.45;0.50;;;21.00;40.70;;;;;;5052459;28;20044;-42
2021/05/26 01:33:14;;;;;;;3.40;0.50;;;21.00;40.80;;;;;;5046954;28;20486;-42
2021/05/26 01:35:41;;;;;;;1.05;0.50;;;21.00;40.80;;;;;;5052255;28;20147;-42
2021/05/26 01:38:07;;;;;;;2.83;0.52;;;21.00;40.80;;;;;;5052105;28;20481;-47
2021/05/26 01:40:33;;;;;;;0.88;0.63;;;21.00;40.90;;;;;;5051716;28;20032;-42
2021/05/26 01:42:58;;;;;;;1.10;0.55;;;21.00;40.90;;;;;;5052282;28;20467;-42
2021/05/26 01:45:24;;;;;;;0.88;0.65;;;21.00;40.90;;;;;;5051402;28;20033;-42
2021/05/26 01:47:51;;;;;;;1.65;0.50;;;21.00;41.00;;;;;;5052115;28;20032;-42
2021/05/26 01:50:20;;;;;;;1.05;0.60;;;21.00;41.00;;;;;;5051534;28;20040;-43
2021/05/26 01:52:52;;;;;;;1.13;0.68;;;21.00;41.00;;;;;;5051826;28;20403;-42
2021/05/26 01:55:18;;;;;;;1.45;0.60;;;21.00;41.00;;;;;;5051430;28;20059;-42
2021/05/26 01:57:44;;;;;;;0.70;0.50;;;21.00;41.00;;;;;;5051925;28;20402;-42
2021/05/26 02:00:15;;;;;;;1.98;0.47;;;21.00;41.00;;;;;;5050804;28;20037;-48
2021/05/26 02:02:42;;;;;;;1.45;0.70;;;21.00;41.00;;;;;;5052020;28;20434;-42
2021/05/26 02:05:09;;;;;;;1.35;0.50;;;21.00;41.60;;;;;;5051555;28;20044;-48
2021/05/26 02:07:35;;;;;;;1.50;0.50;;;21.00;40.90;;;;;;5056560;28;20037;-42
2021/05/26 02:10:03;;;;;;;1.85;0.47;;;21.00;41.00;;;;;;5051427;28;20443;-42
2021/05/26 02:12:33;;;;;;;1.58;0.90;;;20.90;40.90;;;;;;5050173;28;20056;-42
2021/05/26 02:14:59;;;;;;;1.45;0.60;;;21.00;41.00;;;;;;5051740;28;20025;-42
2021/05/26 02:17:25;;;;;;;1.90;0.45;;;20.90;40.90;;;;;;5049642;28;20120;-42
2021/05/26 02:19:51;;;;;;;0.98;0.40;;;20.90;40.90;;;;;;5051395;28;20100;-42
2021/05/26 02:22:18;;;;;;;1.35;0.50;;;20.90;40.90;;;;;;5050624;28;20123;-42
2021/05/26 02:24:45;;;;;;;0.85;0.43;;;21.00;41.00;;;;;;5051496;28;20688;-42
2021/05/26 02:27:11;;;;;;;1.17;0.40;;;21.00;41.00;;;;;;5045823;28;20104;-47
2021/05/26 02:29:37;;;;;;;1.83;0.45;;;20.90;40.90;;;;;;5050513;28;20077;-42
2021/05/26 02:32:05;;;;;;;1.17;0.50;;;21.00;41.10;;;;;;5051353;28;20090;-41
2021/05/26 02:34:31;;;;;;;1.63;0.57;;;20.90;41.00;;;;;;5050233;28;20470;-42
2021/05/26 02:36:57;;;;;;;1.13;0.52;;;21.00;41.10;;;;;;5051439;28;20033;-42
2021/05/26 02:39:22;;;;;;;1.02;0.63;;;20.90;41.00;;;;;;5050222;28;20816;-42
2021/05/26 02:41:48;;;;;;;1.08;0.40;;;20.90;41.10;;;;;;5051352;28;20037;-41
2021/05/26 02:44:14;;;;;;;1.55;0.30;;;20.90;41.10;;;;;;5050368;28;20021;-42
2021/05/26 02:46:39;;;;;;;1.17;0.40;;;21.00;41.20;;;;;;5051303;28;20036;-42
2021/05/26 02:49:06;;;;;;;1.10;0.50;;;20.90;41.10;;;;;;5051121;28;20079;-42
2021/05/26 02:51:35;;;;;;;2.38;0.70;;;21.00;41.20;;;;;;5050325;28;20691;-42
2021/05/26 02:54:01;;;;;;;1.67;0.80;;;20.90;41.20;;;;;;5051094;28;20497;-41
2021/05/26 02:56:27;;;;;;;2.38;0.52;;;21.00;41.30;;;;;;5050078;28;20052;-42
2021/05/26 02:58:54;;;;;;;1.27;0.55;;;20.90;41.20;;;;;;5051087;28;20049;-42
2021/05/26 03:01:20;;;;;;;1.30;0.40;;;21.00;41.30;;;;;;5050061;28;20025;-42
2021/05/26 03:03:46;;;;;;;1.00;0.43;;;20.90;41.20;;;;;;5051336;28;20036;-42
2021/05/26 03:06:11;;;;;;;0.73;0.47;;;20.90;41.30;;;;;;5051210;28;20385;-47
2021/05/26 03:08:37;;;;;;;0.80;0.30;;;20.90;41.30;;;;;;5051087;28;20040;-42
2021/05/26 03:11:03;;;;;;;2.20;0.88;;;20.90;41.40;;;;;;5050891;28;20032;-44
2021/05/26 03:13:29;;;;;;;0.63;0.22;;;20.90;41.40;;;;;;5050486;28;20059;-42
2021/05/26 03:15:55;;;;;;;4.50;0.57;;;20.90;41.50;;;;;;5050858;28;20024;-44
2021/05/26 03:18:22;;;;;;;1.88;0.60;;;20.90;41.60;;;;;;5050166;28;20036;-42
2021/05/26 03:20:49;;;;;;;1.48;0.68;;;20.90;41.60;;;;;;5047127;28;20033;-42
2021/05/26 03:23:16;;;;;;;0.85;0.50;;;20.90;42.30;;;;;;5049623;28;20474;-42
2021/05/26 03:25:42;;;;;;;0.82;0.60;;;20.90;41.70;;;;;;5053934;28;20036;-42
2021/05/26 03:28:07;;;;;;;1.02;0.40;;;20.90;41.70;;;;;;5055061;28;20036;-44
2021/05/26 03:30:34;;;;;;;1.25;0.50;;;20.90;41.70;;;;;;5053776;28;20705;-42
2021/05/26 03:33:07;;;;;;;1.30;0.45;;;20.90;41.80;;;;;;5054877;28;20044;-42
2021/05/26 03:35:33;;;;;;;1.42;0.50;;;20.90;41.80;;;;;;5053572;28;20588;-42
2021/05/26 03:37:59;;;;;;;1.45;0.50;;;20.90;41.80;;;;;;5054979;28;20505;-42
2021/05/26 03:40:25;;;;;;;2.85;1.30;;;20.90;41.80;;;;;;5053558;28;20447;-42
2021/05/26 03:42:50;;;;;;;4.38;0.80;;;20.90;41.90;;;;;;5054587;28;20025;-42
2021/05/26 03:45:16;;;;;;;1.63;0.40;;;20.90;41.90;;;;;;5052472;28;20033;-42
2021/05/26 03:47:42;;;;;;;1.85;0.50;;;20.90;41.90;;;;;;5054000;28;20094;-41
2021/05/26 03:50:13;;;;;;;1.75;0.57;;;20.90;41.90;;;;;;5054542;28;20036;-42
2021/05/26 03:52:43;;;;;;;2.58;0.47;;;20.90;41.90;;;;;;5054594;28;20021;-42
2021/05/26 03:55:11;;;;;;;0.38;0.28;;;20.90;42.00;;;;;;5054600;28;20029;-45
2021/05/26 03:57:38;;;;;;;0.90;0.40;;;21.00;42.20;;;;;;5053651;28;20124;-42
2021/05/26 04:00:09;;;;;;;0.57;0.30;;;20.90;42.00;;;;;;5054093;28;20033;-41
2021/05/26 04:02:38;;;;;;;1.57;0.47;;;20.90;42.00;;;;;;5053155;28;20457;-42
2021/05/26 04:05:05;;;;;;;1.95;0.73;;;20.90;42.00;;;;;;5054183;28;20025;-42
2021/05/26 04:07:31;;;;;;;1.40;0.57;;;20.90;42.00;;;;;;5056746;28;20086;-42
2021/05/26 04:09:57;;;;;;;0.95;0.40;;;20.90;42.10;;;;;;5036295;28;20052;-41
2021/05/26 04:12:27;;;;;;;1.48;0.65;;;20.90;42.00;;;;;;5053445;28;20540;-42
2021/05/26 04:14:57;;;;;;;1.13;0.45;;;20.90;42.00;;;;;;5033575;28;20033;-42
2021/05/26 04:17:23;;;;;;;1.17;0.45;;;20.90;42.10;;;;;;5034533;28;20474;-42
2021/05/26 04:19:49;;;;;;;1.17;0.32;;;20.90;42.10;;;;;;5052904;28;20070;-42
2021/05/26 04:22:14;;;;;;;1.38;0.50;;;20.90;42.10;;;;;;5053074;28;20518;-47
2021/05/26 04:24:40;;;;;;;1.90;0.40;;;20.90;42.10;;;;;;5052044;28;20052;-42
2021/05/26 04:27:06;;;;;;;1.58;0.85;;;20.90;42.10;;;;;;5053788;28;20074;-41
2021/05/26 04:29:33;;;;;;;2.83;0.50;;;20.90;42.20;;;;;;5059828;28;20088;-43
2021/05/26 04:31:59;;;;;;;0.70;0.60;;;20.90;42.20;;;;;;5063716;28;20039;-42
2021/05/26 04:34:25;;;;;;;2.08;0.52;;;20.90;42.30;;;;;;5064072;28;20025;-42
2021/05/26 04:36:50;;;;;;;2.08;0.60;;;20.90;42.30;;;;;;5061851;28;20454;-42
2021/05/26 04:39:16;;;;;;;1.15;0.40;;;20.90;42.30;;;;;;5064412;28;20032;-45
2021/05/26 04:41:42;;;;;;;0.98;0.70;;;20.90;42.30;;;;;;5064338;28;20028;-43
2021/05/26 04:44:08;;;;;;;3.65;0.60;;;20.90;42.30;;;;;;5060235;28;20044;-42
2021/05/26 04:46:34;;;;;;;2.03;0.70;;;20.90;42.30;;;;;;5059603;28;20108;-42
2021/05/26 04:48:59;;;;;;;3.63;1.02;;;20.90;42.50;;;;;;5060949;28;20029;-42
2021/05/26 04:51:25;;;;;;;2.35;0.68;;;20.90;42.50;;;;;;5059991;28;20027;-42
2021/05/26 04:53:51;;;;;;;0.98;0.40;;;20.90;42.50;;;;;;5059131;28;20045;-42
2021/05/26 04:56:17;;;;;;;0.57;0.40;;;20.90;42.50;;;;;;5060156;28;20050;-42
2021/05/26 04:58:42;;;;;;;0.88;0.50;;;20.90;42.60;;;;;;5062467;28;20057;-43
2021/05/26 05:01:09;;;;;;;1.63;0.60;;;20.90;42.60;;;;;;5061547;28;20025;-42
2021/05/26 05:03:34;;;;;;;1.55;0.50;;;20.90;42.60;;;;;;5060307;28;20113;-44
2021/05/26 05:06:00;;;;;;;1.05;0.40;;;20.90;42.70;;;;;;5062821;28;20107;-42
2021/05/26 05:08:26;;;;;;;1.70;0.50;;;20.90;42.70;;;;;;5058017;28;20036;-42
2021/05/26 05:10:55;;;;;;;1.65;0.60;;;20.90;42.70;;;;;;5059762;28;20143;-42
2021/05/26 05:13:21;;;;;;;2.22;0.60;;;20.90;42.80;;;;;;5055294;28;20029;-42
2021/05/26 05:15:47;;;;;;;0.70;0.40;;;20.90;42.80;;;;;;5060959;28;20028;-42
2021/05/26 05:18:12;;;;;;;2.28;0.40;;;20.90;42.80;;;;;;5055006;28;20417;-47
2021/05/26 05:20:38;;;;;;;3.75;0.73;;;20.90;42.80;;;;;;5053422;28;20082;-42
2021/05/26 05:23:04;;;;;;;0.93;0.73;;;20.90;42.70;;;;;;5052965;28;20033;-42
2021/05/26 05:25:30;;;;;;;1.10;0.50;;;20.90;42.70;;;;;;5052140;28;20382;-42
2021/05/26 05:27:56;;;;;;;0.93;0.45;;;21.00;42.80;;;;;;5052840;28;20029;-42
2021/05/26 05:30:22;;;;;;;2.97;1.08;;;20.90;42.80;;;;;;5052123;28;20033;-42
2021/05/26 05:32:48;;;;;;;2.83;0.75;;;21.00;43.60;;;;;;5052401;28;20033;-42
2021/05/26 05:35:14;;;;;;;1.65;0.50;;;20.90;42.90;;;;;;5052149;28;20032;-47
2021/05/26 05:37:40;;;;;;;1.33;0.52;;;21.00;43.00;;;;;;5052125;28;20021;-42
2021/05/26 05:40:06;;;;;;;2.75;0.85;;;21.00;43.20;;;;;;5052245;28;20159;-42
2021/05/26 05:42:32;;;;;;;1.58;0.57;;;21.00;43.50;;;;;;5051620;28;20048;-42
2021/05/26 05:44:58;;;;;;;2.03;0.90;;;21.00;43.70;;;;;;5052082;28;20029;-42
2021/05/26 05:47:23;;;;;;;3.00;0.50;;;21.10;44.00;;;;;;5050669;28;20413;-41
2021/05/26 05:49:49;;;;;;;3.95;0.70;;;21.10;44.20;;;;;;5052453;28;20359;-42
2021/05/26 05:52:15;;;;;;;3.83;0.88;;;21.10;44.70;;;;;;5033736;28;20124;-48
2021/05/26 05:54:46;;;;;;;5.07;1.00;;;21.10;46.10;;;;;;5051842;28;20028;-42
2021/05/26 05:57:12;;;;;;;3.33;0.90;;;21.10;45.20;;;;;;5052236;28;20055;-42
2021/05/26 05:59:37;;;;;;;4.32;1.50;;;21.10;45.80;;;;;;5050195;28;20040;-41
2021/05/26 06:02:03;;;;;;;9.15;1.52;;;21.10;46.00;;;;;;5051971;28;20021;-41
2021/05/26 06:04:31;;;;;;;3.47;1.05;;;21.20;46.20;;;;;;5048430;28;20083;-42
2021/05/26 06:06:57;;;;;;;4.45;0.70;;;21.20;46.20;;;;;;5058457;28;20473;-42
2021/05/26 06:09:23;;;;;;;5.22;0.75;;;21.20;46.30;;;;;;5050690;28;20029;-41
2021/05/26 06:11:48;;;;;;;2.55;0.80;;;21.20;46.60;;;;;;5051867;28;20029;-42
2021/05/26 06:14:17;;;;;;;8.32;0.80;;;21.20;46.60;;;;;;5046673;28;20025;-44
2021/05/26 06:16:42;;;;;;;4.80;0.90;;;21.20;46.90;;;;;;5051041;28;20027;-42
2021/05/26 06:19:08;;;;;;;13.52;0.80;;;21.20;46.70;;;;;;5051641;28;20074;-41
2021/05/26 06:21:34;;;;;;;5.93;1.20;;;21.10;47.10;;;;;;5050672;28;20060;-42
2021/05/26 06:24:01;;;;;;;3.65;0.80;;;21.10;47.40;;;;;;5051470;28;20070;-42
2021/05/26 06:26:31;;;;;;;5.07;0.85;;;21.10;47.40;;;;;;5051100;28;20033;-42
2021/05/26 06:29:03;;;;;;;5.80;0.90;;;21.10;47.40;;;;;;5051098;28;20064;-42
2021/05/26 06:31:29;;;;;;;2.83;0.73;;;21.10;47.40;;;;;;5051008;28;20025;-42
2021/05/26 06:33:55;;;;;;;4.78;0.90;;;21.10;47.50;;;;;;5051285;28;20485;-41
2021/05/26 06:36:21;;;;;;;4.00;0.65;;;21.10;47.50;;;;;;5050886;28;20029;-42
2021/05/26 06:38:47;;;;;;;3.08;0.80;;;21.10;47.50;;;;;;5051040;28;20033;-41
2021/05/26 06:41:12;;;;;;;3.20;0.80;;;21.10;47.50;;;;;;5050996;28;20028;-41
2021/05/26 06:43:39;;;;;;;2.33;0.55;;;21.10;47.60;;;;;;5050459;28;20862;-42
2021/05/26 06:46:05;;;;;;;1.95;0.60;;;21.10;47.60;;;;;;5051255;28;20386;-41
2021/05/26 06:48:30;;;;;;;5.97;0.60;;;21.10;47.60;;;;;;5050356;28;20044;-41
2021/05/26 06:50:56;;;;;;;2.50;0.57;;;21.10;47.60;;;;;;5051457;28;20119;-42
2021/05/26 06:53:22;;;;;;;4.85;0.95;;;21.10;47.60;;;;;;5049854;28;20033;-42
2021/05/26 06:55:47;;;;;;;3.90;0.80;;;21.10;47.70;;;;;;5051863;28;20116;-41
2021/05/26 06:58:13;;;;;;;3.22;0.70;;;21.00;47.70;;;;;;5045750;28;20505;-41
2021/05/26 07:00:38;;;;;;;5.68;0.80;;;21.00;47.70;;;;;;5049501;28;20036;-41
2021/05/26 07:03:05;;;;;;;3.10;0.73;;;21.00;47.70;;;;;;5050814;28;20025;-42
2021/05/26 07:05:31;;;;;;;4.07;0.90;;;21.00;47.60;;;;;;5050384;28;20102;-42
2021/05/26 07:07:56;;;;;;;3.60;0.68;;;21.00;47.60;;;;;;5053075;28;20506;-41
2021/05/26 07:10:22;;;;;;;3.30;0.82;;;21.00;47.70;;;;;;5050317;28;20075;-42
2021/05/26 07:12:50;;;;;;;3.00;0.52;;;21.10;47.70;;;;;;5051063;28;20021;-41
2021/05/26 07:15:17;;;;;;;3.17;0.82;;;21.10;47.70;;;;;;5050763;28;20021;-43
2021/05/26 07:17:43;;;;;;;2.58;0.70;;;21.00;47.60;;;;;;5050581;28;20522;-41
2021/05/26 07:20:09;;;;;;;1.70;0.65;;;21.10;47.70;;;;;;5051069;28;20108;-42
2021/05/26 07:22:35;;;;;;;4.22;1.15;;;21.00;47.70;;;;;;5050313;28;20372;-41
2021/05/26 07:25:00;;;;;;;1.98;0.65;;;21.00;47.60;;;;;;5050176;28;20032;-42
2021/05/26 07:27:26;;;;;;;0.90;0.45;;;21.00;47.70;;;;;;5049991;28;20405;-44
2021/05/26 07:29:52;;;;;;;0.90;0.55;;;21.00;47.70;;;;;;5050156;28;20033;-42
2021/05/26 07:32:18;;;;;;;3.08;0.75;;;21.10;47.70;;;;;;5051000;28;20087;-47
2021/05/26 07:34:43;;;;;;;1.50;0.60;;;21.00;47.70;;;;;;5049871;28;20037;-41
2021/05/26 07:37:09;;;;;;;1.23;0.50;;;21.00;47.60;;;;;;5051199;28;20029;-42
2021/05/26 07:39:36;;;;;;;1.65;0.60;;;21.00;47.70;;;;;;5049862;28;20072;-42
2021/05/26 07:42:03;;;;;;;2.40;0.52;;;21.00;47.60;;;;;;5050570;28;20111;-42
2021/05/26 07:44:29;;;;;;;3.00;0.80;;;21.00;47.60;;;;;;5032059;28;20052;-42
2021/05/26 07:46:54;;;;;;;0.50;0.40;;;21.10;47.70;;;;;;5050443;28;20056;-42
2021/05/26 07:49:23;;;;;;;1.85;0.40;;;21.00;47.60;;;;;;5044424;28;20032;-47
2021/05/26 07:51:54;;;;;;;1.23;0.60;;;21.00;47.60;;;;;;5045609;28;20356;-41
2021/05/26 07:54:22;;;;;;;1.20;0.43;;;21.00;47.60;;;;;;5049812;28;20033;-47
2021/05/26 07:56:48;;;;;;;1.33;0.45;;;21.00;47.60;;;;;;5050123;28;20040;-42
2021/05/26 07:59:13;;;;;;;1.55;0.60;;;21.00;47.60;;;;;;5050585;28;20036;-42
2021/05/26 08:01:39;;;;;;;3.42;0.82;;;21.00;47.50;;;;;;5049928;28;20032;-41
2021/05/26 08:04:05;;;;;;;2.03;0.98;;;21.00;47.50;;;;;;5049541;28;20028;-41
2021/05/26 08:06:30;;;;;;;0.95;0.30;;;21.00;47.50;;;;;;5053697;28;20028;-42
2021/05/26 08:08:56;;;;;;;1.33;0.57;;;21.00;47.50;;;;;;5034027;28;20508;-42
2021/05/26 08:11:22;;;;;;;1.63;0.50;;;21.00;47.50;;;;;;5052123;28;20040;-47
2021/05/26 08:13:48;;;;;;;1.17;0.60;;;21.00;47.50;;;;;;5052856;28;20455;-42
2021/05/26 08:16:14;;;;;;;0.98;0.40;;;21.00;47.50;;;;;;5053688;28;20029;-41
2021/05/26 08:18:40;;;;;;;1.50;0.63;;;21.00;47.50;;;;;;5053021;28;20037;-42
2021/05/26 08:21:06;;;;;;;1.00;0.45;;;21.00;47.40;;;;;;5053273;28;20044;-42
2021/05/26 08:23:32;;;;;;;1.33;0.40;;;21.00;47.40;;;;;;5052279;28;20021;-42
2021/05/26 08:25:57;;;;;;;0.88;0.47;;;21.00;47.40;;;;;;5052771;28;20484;-42
2021/05/26 08:28:23;;;;;;;1.25;0.60;;;21.00;47.30;;;;;;5052574;28;20037;-47
2021/05/26 08:30:49;;;;;;;1.27;0.60;;;21.00;47.30;;;;;;5053580;28;20124;-42
2021/05/26 08:33:14;;;;;;;2.97;1.15;;;21.00;47.30;;;;;;5053750;28;20512;-41
2021/05/26 08:35:40;;;;;;;1.02;0.40;;;21.00;47.30;;;;;;5052735;28;20025;-42
2021/05/26 08:38:06;;;;;;;0.95;0.50;;;21.00;47.30;;;;;;5035527;28;20029;-41
2021/05/26 08:40:32;;;;;;;2.15;0.55;;;21.00;47.30;;;;;;5052356;28;20025;-41
2021/05/26 08:42:58;;;;;;;0.70;0.50;;;21.00;47.30;;;;;;5053372;28;20032;-42
2021/05/26 08:45:25;;;;;;;2.20;0.75;;;21.00;48.00;;;;;;5049063;28;20104;-43
2021/05/26 08:47:56;;;;;;;1.38;0.50;;;21.00;47.30;;;;;;5051709;28;20025;-41
2021/05/26 08:50:22;;;;;;;1.30;0.40;;;21.00;47.20;;;;;;5053019;28;20032;-46
2021/05/26 08:52:49;;;;;;;1.83;0.57;;;21.00;47.20;;;;;;5053345;28;20036;-42
2021/05/26 08:55:15;;;;;;;0.63;0.45;;;21.00;47.80;;;;;;5053345;28;20039;-41
2021/05/26 08:57:41;;;;;;;1.25;0.43;;;21.00;47.20;;;;;;5052580;28;20046;-41
2021/05/26 09:00:08;;;;;;;0.63;0.43;;;21.00;47.20;;;;;;5051499;28;20044;-41
2021/05/26 09:02:34;;;;;;;1.33;0.52;;;21.00;47.10;;;;;;5052057;28;20432;-41
2021/05/26 09:04:59;;;;;;;3.53;0.80;;;21.00;47.20;;;;;;5053072;28;20029;-41
2021/05/26 09:07:29;;;;;;;0.88;0.40;;;21.00;47.20;;;;;;5059118;28;20111;-42
2021/05/26 09:10:00;;;;;;;2.10;0.63;;;21.00;47.20;;;;;;5052718;28;20398;-44
2021/05/26 09:12:46;;;;;;;1.40;0.50;;;21.00;47.10;;;;;;5044649;28;20428;-42
2021/05/26 09:15:17;;;;;;;0.55;0.40;;;21.00;47.10;;;;;;5034793;28;20137;-43
2021/05/26 09:17:44;;;;;;;1.05;0.52;;;21.00;47.10;;;;;;5052012;28;20862;-41
2021/05/26 09:20:27;;;;;;;1.67;0.57;;;21.00;47.10;;;;;;5052020;28;20462;-42
2021/05/26 09:23:16;;;;;;;1.02;0.40;;;21.00;47.10;;;;;;5042365;28;20536;-42
2021/05/26 09:25:45;;;;;;;2.97;0.70;;;21.00;47.20;;;;;;5050127;28;20032;-41
2021/05/26 09:28:19;;;;;;;1.10;0.73;;;21.00;47.20;;;;;;5052808;28;20462;-41
2021/05/26 09:30:50;;;;;;;2.15;0.50;;;21.00;47.10;;;;;;5051368;28;20052;-42
2021/05/26 09:33:29;;;;;;;1.30;0.60;;;21.10;47.20;;;;;;5052375;28;20486;-42
2021/05/26 09:36:10;;;;;;;2.25;0.70;;;21.00;47.10;;;;;;5051515;28;20029;-42
2021/05/26 09:38:47;;;;;;;1.75;0.57;;;21.00;47.10;;;;;;5047923;28;20040;-41
2021/05/26 09:41:20;;;;;;;0.73;0.45;;;21.00;47.10;;;;;;5047906;28;20036;-42
2021/05/26 09:43:49;;;;;;;1.23;0.70;;;21.00;47.10;;;;;;5052041;28;20115;-42
2021/05/26 09:46:23;;;;;;;0.73;0.50;;;21.00;47.00;;;;;;5051911;28;20037;-42
2021/05/26 09:49:02;;;;;;;1.80;0.88;;;21.00;47.00;;;;;;5051880;28;20032;-41
2021/05/26 09:51:29;;;;;;;1.65;0.50;;;21.00;47.00;;;;;;5051299;28;20040;-42
2021/05/26 09:54:29;;;;;;;1.17;0.57;;;21.00;47.00;;;;;;5052098;28;20094;-42
2021/05/26 09:57:15;;;;;;;0.73;0.45;;;21.00;47.00;;;;;;5018774;28;20044;-41
2021/05/26 09:59:42;;;;;;;1.20;0.50;;;21.00;47.00;;;;;;5051102;28;20613;-42
2021/05/26 10:02:09;;;;;;;0.82;0.40;;;21.00;47.00;;;;;;5052093;28;20025;-42
2021/05/26 10:04:41;;;;;;;1.48;0.47;;;21.00;47.00;;;;;;5051433;28;20111;-42
2021/05/26 10:07:07;;;;;;;1.40;0.50;;;21.00;47.00;;;;;;5052300;28;20033;-41
2021/05/26 10:09:33;;;;;;;0.80;0.40;;;21.00;46.90;;;;;;5051426;28;20068;-42
2021/05/26 10:12:01;;;;;;;4.72;0.50;;;21.00;46.90;;;;;;5051494;28;20032;-41
2021/05/26 10:14:28;;;;;;;1.30;0.40;;;21.00;47.00;;;;;;5051000;28;20091;-41
2021/05/26 10:16:55;;;;;;;1.45;0.52;;;21.00;46.90;;;;;;5051372;28;20037;-42
2021/05/26 10:19:22;;;;;;;0.40;0.28;;;21.00;46.80;;;;;;5052211;28;20033;-41
2021/05/26 10:21:48;;;;;;;2.50;0.50;;;21.10;47.00;;;;;;5051142;28;20048;-41
2021/05/26 10:24:19;;;;;;;3.17;1.58;;;21.10;47.60;;;;;;5051768;28;20033;-41
2021/05/26 10:27:06;;;;;;;2.87;1.00;;;21.20;48.10;;;;;;5051015;28;20029;-41
2021/05/26 10:29:40;;;;;;;1.33;0.90;;;21.20;48.80;;;;;;5048268;28;20556;-42
2021/05/26 10:32:07;;;;;;;1.58;1.25;;;21.20;49.40;;;;;;5051612;28;20079;-42
2021/05/26 10:34:42;;;;;;;2.53;1.02;;;21.20;49.70;;;;;;5045187;28;20079;-42
2021/05/26 10:37:08;;;;;;;2.05;0.70;;;21.20;49.80;;;;;;5051059;28;20032;-42
2021/05/26 10:39:34;;;;;;;0.93;0.60;;;21.10;49.90;;;;;;5050510;28;20378;-42
2021/05/26 10:42:01;;;;;;;1.38;0.82;;;21.10;49.60;;;;;;5051190;28;20025;-41
2021/05/26 10:45:09;;;;;;;1.08;0.57;;;21.10;49.50;;;;;;5050305;28;20116;-44
2021/05/26 10:47:42;;;;;;;1.27;0.82;;;21.10;49.40;;;;;;5049341;28;20021;-41
2021/05/26 10:50:17;;;;;;;0.82;0.55;;;21.10;49.30;;;;;;5051000;28;20390;-41
2021/05/26 10:52:55;;;;;;;1.38;0.50;;;21.10;49.20;;;;;;5049935;28;20025;-41
2021/05/26 10:55:42;;;;;;;1.00;0.50;;;21.10;49.10;;;;;;5051152;28;20029;-41
2021/05/26 10:58:25;;;;;;;2.38;0.88;;;21.10;49.00;;;;;;5050830;28;20045;-42
2021/05/26 11:00:56;;;;;;;1.08;0.50;;;21.10;49.00;;;;;;5046808;28;20059;-41
2021/05/26 11:03:28;;;;;;;1.83;0.47;;;21.10;48.80;;;;;;5050703;28;20025;-47
2021/05/26 11:06:25;;;;;;;2.05;0.50;;;21.10;48.80;;;;;;5051495;28;20470;-42
2021/05/26 11:08:53;;;;;;;1.95;0.65;;;21.10;48.70;;;;;;5040616;28;20036;-44
2021/05/26 11:11:24;;;;;;;0.57;0.38;;;21.10;48.60;;;;;;5050102;28;20033;-42
2021/05/26 11:14:18;;;;;;;0.45;0.40;;;21.10;48.60;;;;;;5050170;28;20033;-43
2021/05/26 11:16:47;;;;;;;1.25;0.50;;;21.10;48.50;;;;;;5050146;28;20474;-41
2021/05/26 11:19:17;;;;;;;0.93;0.40;;;21.10;48.50;;;;;;5050740;28;20462;-41
2021/05/26 11:21:57;;;;;;;0.90;0.50;;;21.10;48.50;;;;;;5048881;28;20389;-42
2021/05/26 11:24:25;;;;;;;0.60;0.40;;;21.20;48.50;;;;;;5051055;28;20025;-41
2021/05/26 11:26:51;;;;;;;2.83;0.75;;;21.10;48.50;;;;;;5050072;28;20065;-42
2021/05/26 11:29:34;;;;;;;0.88;0.43;;;21.10;48.60;;;;;;5047349;28;20037;-42
2021/05/26 11:32:05;;;;;;;;;;;21.10;48.60;;;;;;5050851;28;20128;-41
2021/05/26 11:34:31;;;;;;;0.33;0.30;;;21.10;48.60;;;;;;5050028;28;19908;-41
2021/05/26 11:36:57;;;;;;;0.82;0.50;;;21.10;48.60;;;;;;5050395;28;20078;-42
2021/05/26 11:39:28;;;;;;;0.98;0.47;;;21.00;48.50;;;;;;5050455;28;20029;-42
2021/05/26 11:42:16;;;;;;;1.35;0.40;;;21.10;48.50;;;;;;5050895;28;20104;-43
2021/05/26 11:44:52;;;;;;;0.60;0.47;;;21.00;48.40;;;;;;5049566;28;20064;-42
2021/05/26 11:47:28;;;;;;;0.90;0.52;;;21.10;48.40;;;;;;5054911;28;20497;-41
2021/05/26 11:49:54;;;;;;;0.50;0.38;;;21.00;48.30;;;;;;5053979;28;20025;-41
2021/05/26 11:52:19;;;;;;;1.05;0.40;;;21.00;48.30;;;;;;5053928;28;20045;-41
2021/05/26 11:54:59;;;;;;;0.85;0.40;;;21.10;48.30;;;;;;5050341;28;20013;-44
2021/05/26 11:57:39;;;;;;;0.40;0.40;;;21.00;48.20;;;;;;5053147;28;20040;-46
2021/05/26 12:00:09;;;;;;;1.42;0.40;;;21.00;48.10;;;;;;5054202;28;20037;-41
2021/05/26 12:02:35;;;;;;;2.05;0.98;;;21.00;48.80;;;;;;5051739;28;20025;-41
2021/05/26 12:05:01;;;;;;;1.00;0.60;;;21.00;48.10;;;;;;5054154;28;20028;-42
2021/05/26 12:07:28;;;;;;;1.95;0.60;;;21.00;48.00;;;;;;5055008;28;20474;-47
2021/05/26 12:10:01;;;;;;;1.08;0.50;;;21.00;48.00;;;;;;5054083;28;20052;-42
2021/05/26 12:12:27;;;;;;;1.45;0.50;;;21.00;47.90;;;;;;5053657;28;20045;-47
2021/05/26 12:14:54;;;;;;;0.95;0.50;;;21.00;47.90;;;;;;5053455;28;20033;-41
2021/05/26 12:17:22;;;;;;;0.70;0.30;;;21.00;47.80;;;;;;5053696;28;20435;-41
2021/05/26 12:19:51;;;;;;;0.50;0.30;;;21.00;47.80;;;;;;5053076;28;20059;-42
2021/05/26 12:22:22;;;;;;;0.38;0.20;;;21.00;47.70;;;;;;5049270;28;20032;-43
2021/05/26 12:25:01;;;;;;;0.80;0.40;;;21.00;47.70;;;;;;5047361;28;20024;-42
2021/05/26 12:27:36;;;;;;;0.88;0.40;;;21.00;47.70;;;;;;5053974;28;20036;-47
2021/05/26 12:30:22;;;;;;;0.75;0.40;;;21.00;47.60;;;;;;5053651;28;20033;-41
2021/05/26 12:32:53;;;;;;;0.70;0.40;;;21.10;47.60;;;;;;5052898;28;20099;-41
2021/05/26 12:35:23;;;;;;;1.17;0.45;;;21.00;47.50;;;;;;5053923;28;20075;-41
2021/05/26 12:37:52;;;;;;;1.20;0.40;;;21.00;47.50;;;;;;5052888;28;20033;-42
2021/05/26 12:40:26;;;;;;;1.10;0.40;;;21.00;47.50;;;;;;5053937;28;20381;-41
2021/05/26 12:42:53;;;;;;;0.82;0.40;;;21.10;47.50;;;;;;5042613;28;20075;-41
2021/05/26 12:45:25;;;;;;;1.65;0.50;;;21.10;47.40;;;;;;5053537;28;20032;-41
2021/05/26 12:47:56;;;;;;;1.52;0.80;;;21.10;47.40;;;;;;5052169;28;20051;-42
2021/05/26 12:50:28;;;;;;;1.50;0.40;;;21.10;47.40;;;;;;5053498;28;20569;-41
2021/05/26 12:53:04;;;;;;;1.00;0.50;;;21.10;47.40;;;;;;5053089;28;20047;-42